Time;durP1;ratioP1;P1;durP2;ratioP2;P2;SDS_P1;SDS_P2;PMS_P1;PMS_P2;Temp;Humidity;BMP_temperature;BMP_pressure;BME280_temperature;BME280_humidity;BME280_pressure;Samples;Min_cycle;Max_cycle;Signal;HPM_P1;HPM_P2
2021/08/08 00:00:54;;;;;;;5.72;4.08;;;;;;;20.05;64.46;98970.42;2085142;83;21101;-73
2021/08/08 00:03:55;;;;;;;6.22;3.60;;;;;;;20.14;64.49;98985.03;2097594;82;21050;-77
2021/08/08 00:06:56;;;;;;;4.90;3.58;;;;;;;20.19;64.78;98988.31;2084840;83;21599;-74
2021/08/08 00:09:58;;;;;;;7.47;3.75;;;;;;;20.20;64.83;99007.97;2048083;84;21592;-73
2021/08/08 00:12:59;;;;;;;7.03;3.47;;;;;;;20.18;65.12;99117.82;2068690;84;21171;-76
2021/08/08 00:16:01;;;;;;;8.93;3.90;;;;;;;20.07;64.55;99054.42;2058700;84;21584;-75
2021/08/08 00:19:03;;;;;;;5.05;3.60;;;;;;;19.97;65.06;99094.73;2053393;84;21706;-77
2021/08/08 00:22:04;;;;;;;8.38;4.08;;;;;;;19.97;64.62;99097.42;2065874;84;21184;-75
2021/08/08 00:25:09;;;;;;;6.42;3.90;;;;;;;19.97;64.71;99088.00;2051853;84;21106;-73
2021/08/08 00:28:10;;;;;;;8.83;3.58;;;;;;;19.97;64.65;99089.34;2046295;84;21097;-73
2021/08/08 00:31:11;;;;;;;5.50;3.45;;;;;;;19.97;64.67;99092.03;2078264;83;21146;-76
2021/08/08 00:34:13;;;;;;;8.30;4.00;;;;;;;19.96;64.70;99089.05;2079745;82;21616;-75
2021/08/08 00:37:14;;;;;;;8.23;3.20;;;;;;;19.95;64.69;99092.81;2077662;83;21082;-74
2021/08/08 00:40:19;;;;;;;7.87;3.62;;;;;;;19.95;64.94;99093.35;2092136;82;21120;-74
2021/08/08 00:43:20;;;;;;;7.85;3.98;;;;;;;19.88;65.42;99084.14;2075035;82;21139;-74
2021/08/08 00:46:24;;;;;;;8.25;2.92;;;;;;;19.78;65.55;99086.70;2071754;83;22326;-73
2021/08/08 00:49:26;;;;;;;4.25;2.47;;;;;;;19.60;67.11;99103.97;2079828;83;22939;-77
2021/08/08 00:52:28;;;;;;;3.92;1.90;;;;;;;19.26;67.05;99112.13;2084154;83;22328;-74
2021/08/08 00:55:30;;;;;;;2.72;2.00;;;;;;;18.87;67.76;99116.13;2081633;83;21629;-76
2021/08/08 00:58:31;;;;;;;4.92;2.40;;;;;;;18.57;68.59;99121.78;2065669;83;21129;-75
2021/08/08 01:01:40;;;;;;;3.37;2.15;;;;;;;18.30;69.65;99124.26;2075693;83;21680;-75
2021/08/08 01:05:03;;;;;;;7.58;2.50;;;;;;;18.09;70.09;99131.14;2073394;83;21369;-76
2021/08/08 01:08:08;;;;;;;2.70;1.95;;;;;;;17.95;70.52;99128.45;2081595;83;21115;-81
2021/08/08 01:11:11;;;;;;;3.25;2.45;;;;;;;17.78;71.58;99121.15;2070221;83;21110;-78
2021/08/08 01:14:14;;;;;;;6.37;2.60;;;;;;;17.68;71.97;99116.87;2050516;84;21128;-73
2021/08/08 01:17:19;;;;;;;6.70;2.30;;;;;;;17.59;71.90;99129.03;2075341;82;21095;-75
2021/08/08 01:20:21;;;;;;;4.20;2.33;;;;;;;17.48;72.46;99139.56;2076806;82;21142;-79
2021/08/08 01:23:25;;;;;;;4.10;2.75;;;;;;;17.43;72.77;99143.47;2073398;83;21155;-74
2021/08/08 01:26:31;;;;;;;2.20;1.95;;;;;;;17.37;72.83;99155.14;2061666;84;21109;-77
2021/08/08 01:29:34;;;;;;;6.25;2.30;;;;;;;17.34;73.29;99154.77;2038801;84;22339;-74
2021/08/08 01:32:36;;;;;;;4.83;2.42;;;;;;;17.29;73.63;99140.75;2081553;83;22546;-73
2021/08/08 01:35:40;;;;;;;2.77;1.80;;;;;;;17.27;73.63;99128.62;2072899;83;21225;-81
2021/08/08 01:38:48;;;;;;;3.52;2.37;;;;;;;17.24;73.40;99143.31;2059928;83;21181;-76
2021/08/08 01:41:56;;;;;;;4.40;2.42;;;;;;;17.23;73.88;99145.68;2042812;84;21113;-74
2021/08/08 01:45:02;;;;;;;4.60;2.47;;;;;;;17.20;73.82;99159.05;2076838;82;21551;-74
2021/08/08 01:48:09;;;;;;;4.25;2.33;;;;;;;17.19;74.01;99171.34;2071170;83;21082;-73
2021/08/08 01:51:12;;;;;;;3.80;2.30;;;;;;;17.18;74.47;99205.90;2076788;82;21138;-79
2021/08/08 01:54:16;;;;;;;3.85;2.50;;;;;;;17.15;74.65;99231.30;2081345;83;21050;-75
2021/08/08 01:57:18;;;;;;;2.83;2.25;;;;;;;17.09;74.96;99242.95;2080497;83;21121;-74
2021/08/08 02:00:26;;;;;;;4.83;2.40;;;;;;;17.08;76.00;99253.89;2086624;83;21114;-75
2021/08/08 02:03:40;;;;;;;4.33;2.47;;;;;;;17.07;75.56;99257.09;2072678;83;21131;-74
2021/08/08 02:06:43;;;;;;;5.08;2.55;;;;;;;17.08;75.23;99278.81;2077539;83;21066;-74
2021/08/08 02:09:47;;;;;;;3.37;2.20;;;;;;;17.10;75.54;99289.33;2077227;82;21061;-75
2021/08/08 02:12:49;;;;;;;2.77;2.30;;;;;;;17.09;76.62;99298.39;2081427;82;21132;-73
2021/08/08 02:15:52;;;;;;;3.47;2.40;;;;;;;17.09;76.58;99310.45;2085625;82;21181;-74
2021/08/08 02:18:54;;;;;;;2.75;1.80;;;;;;;17.03;76.30;99313.02;2070903;83;23753;-74
2021/08/08 02:21:59;;;;;;;3.37;2.10;;;;;;;16.99;76.35;99315.84;2068084;82;21061;-75
2021/08/08 02:25:04;;;;;;;3.47;2.20;;;;;;;16.98;76.56;99316.91;2073813;83;21083;-73
2021/08/08 02:28:07;;;;;;;3.85;2.20;;;;;;;16.96;76.92;99316.84;2082583;83;22509;-75
2021/08/08 02:31:12;;;;;;;3.85;2.72;;;;;;;16.95;76.89;99327.23;2079162;82;21714;-75
2021/08/08 02:34:14;;;;;;;4.80;2.33;;;;;;;16.91;77.05;99324.20;2090338;83;21113;-75
2021/08/08 02:37:16;;;;;;;4.40;2.60;;;;;;;16.89;77.34;99316.09;2077772;83;21544;-74
2021/08/08 02:40:20;;;;;;;2.65;2.08;;;;;;;16.86;77.11;99310.67;2079699;83;22438;-79
2021/08/08 02:43:22;;;;;;;3.85;2.00;;;;;;;16.87;77.03;99305.63;2073782;83;21139;-74
2021/08/08 02:46:24;;;;;;;5.47;2.08;;;;;;;16.89;77.34;99338.34;2072398;82;21014;-76
2021/08/08 02:49:26;;;;;;;2.80;2.17;;;;;;;16.85;77.45;99367.98;2090091;82;21004;-75
2021/08/08 02:52:28;;;;;;;4.50;2.35;;;;;;;16.82;77.64;99377.81;2089812;83;21133;-74
2021/08/08 02:55:30;;;;;;;4.03;2.30;;;;;;;16.79;77.51;99391.14;2084890;82;21087;-74
2021/08/08 02:58:33;;;;;;;3.60;2.00;;;;;;;16.79;77.50;99399.17;2075928;83;21082;-75
2021/08/08 03:01:35;;;;;;;3.98;2.02;;;;;;;16.77;77.68;99396.42;2078069;82;21199;-76
2021/08/08 03:04:37;;;;;;;2.75;1.92;;;;;;;16.73;77.76;99411.28;2086715;83;21158;-74
2021/08/08 03:07:39;;;;;;;2.65;2.22;;;;;;;16.70;78.56;99415.75;2083254;82;21093;-74
2021/08/08 03:10:41;;;;;;;2.45;2.25;;;;;;;16.66;78.53;99412.68;2089994;82;21054;-73
2021/08/08 03:13:43;;;;;;;3.02;2.58;;;;;;;16.65;78.11;99419.62;2089090;83;21136;-74
2021/08/08 03:16:47;;;;;;;2.55;1.90;;;;;;;16.64;77.87;99430.02;2076650;83;21100;-73
2021/08/08 03:19:49;;;;;;;2.47;2.20;;;;;;;16.63;77.80;99415.81;2047155;83;21596;-73
2021/08/08 03:22:51;;;;;;;6.87;2.27;;;;;;;16.62;77.79;99419.54;2083213;82;21100;-73
2021/08/08 03:25:53;;;;;;;3.12;2.30;;;;;;;16.67;77.85;99440.28;2093843;83;21100;-76
2021/08/08 03:28:54;;;;;;;8.58;2.65;;;;;;;16.69;77.85;99442.22;2069762;83;21037;-73
2021/08/08 03:31:55;;;;;;;2.67;1.72;;;;;;;16.71;77.75;99430.77;2079095;82;21122;-80
2021/08/08 03:34:57;;;;;;;3.27;2.10;;;;;;;16.73;77.65;99404.06;2078200;83;21102;-73
2021/08/08 03:37:59;;;;;;;2.83;2.30;;;;;;;16.73;77.62;99437.55;2082499;83;21146;-75
2021/08/08 03:41:00;;;;;;;4.40;2.35;;;;;;;16.72;77.65;99430.53;2069752;83;21207;-76
2021/08/08 03:44:03;;;;;;;4.72;2.12;;;;;;;16.76;77.79;99422.89;2087520;82;21128;-76
2021/08/08 03:47:04;;;;;;;4.12;2.40;;;;;;;16.76;77.70;99413.52;2075399;82;21175;-74
2021/08/08 03:50:07;;;;;;;2.17;2.05;;;;;;;16.77;77.79;99410.62;2061280;84;21098;-77
2021/08/08 03:53:08;;;;;;;4.40;2.67;;;;;;;16.81;77.79;99404.32;2053468;83;21582;-74
2021/08/08 03:56:09;;;;;;;4.22;2.55;;;;;;;16.82;77.71;99401.11;2047388;84;21150;-75
2021/08/08 03:59:11;;;;;;;3.75;2.40;;;;;;;16.80;77.75;99416.88;2047271;84;22407;-75
2021/08/08 04:02:13;;;;;;;5.37;2.65;;;;;;;16.73;77.75;99435.39;2084829;83;21056;-77
2021/08/08 04:05:15;;;;;;;2.47;2.27;;;;;;;16.71;77.85;99441.48;2070619;83;21067;-76
2021/08/08 04:08:16;;;;;;;5.10;2.52;;;;;;;16.72;77.86;99449.81;2084300;83;21059;-75
2021/08/08 04:11:18;;;;;;;2.70;2.45;;;;;;;16.75;77.95;99457.39;2085094;83;21118;-74
2021/08/08 04:14:20;;;;;;;4.97;2.98;;;;;;;16.81;78.04;99475.31;2071553;83;21704;-73
2021/08/08 04:17:21;;;;;;;5.10;2.72;;;;;;;16.82;78.02;99489.00;2077467;82;21559;-74
2021/08/08 04:20:22;;;;;;;3.60;2.87;;;;;;;16.82;78.05;99482.30;2091362;83;21133;-75
2021/08/08 04:23:23;;;;;;;2.95;2.55;;;;;;;16.78;78.02;99482.43;2087205;82;22243;-76
2021/08/08 04:26:25;;;;;;;6.70;2.95;;;;;;;16.74;78.08;99488.73;2086790;82;21449;-75
2021/08/08 04:29:27;;;;;;;3.72;2.85;;;;;;;16.72;78.29;99499.36;2079779;82;21180;-74
2021/08/08 04:32:28;;;;;;;3.98;3.02;;;;;;;16.66;78.31;99505.09;2089465;82;21583;-81
2021/08/08 04:35:32;;;;;;;4.78;2.70;;;;;;;16.57;78.56;99507.23;2089409;83;21052;-81
2021/08/08 04:38:35;;;;;;;4.45;3.20;;;;;;;16.54;78.76;99506.34;2070464;83;21111;-76
2021/08/08 04:41:36;;;;;;;6.42;3.25;;;;;;;16.49;78.86;99504.84;2089438;82;21073;-74
2021/08/08 04:44:37;;;;;;;6.42;3.47;;;;;;;16.50;78.91;99519.04;2054665;82;21139;-73
2021/08/08 04:47:38;;;;;;;4.58;3.00;;;;;;;16.49;78.98;99530.80;2073449;83;21104;-73
2021/08/08 04:50:41;;;;;;;5.22;3.20;;;;;;;16.50;78.99;99539.97;2079779;82;21409;-73
2021/08/08 04:53:42;;;;;;;3.72;2.83;;;;;;;16.56;79.16;99539.08;2080491;82;21054;-76
2021/08/08 04:56:45;;;;;;;3.92;3.12;;;;;;;16.57;79.05;99530.52;2084856;82;21176;-74
2021/08/08 04:59:46;;;;;;;3.20;2.90;;;;;;;16.61;79.10;99528.22;2075813;82;21141;-76
2021/08/08 05:02:49;;;;;;;4.17;2.92;;;;;;;16.66;79.14;99535.89;2079454;83;21118;-76
2021/08/08 05:05:50;;;;;;;3.80;3.10;;;;;;;16.70;79.15;99560.40;2081327;83;21098;-75
2021/08/08 05:08:51;;;;;;;2.75;2.55;;;;;;;16.71;79.01;99567.38;2069916;83;21071;-75
2021/08/08 05:11:53;;;;;;;3.70;2.55;;;;;;;16.73;79.02;99578.71;2079448;81;21088;-73
2021/08/08 05:14:54;;;;;;;4.33;2.50;;;;;;;16.75;78.97;99572.59;2081549;82;21394;-77
2021/08/08 05:17:56;;;;;;;4.53;2.62;;;;;;;16.76;78.91;99580.94;2087591;81;21602;-72
2021/08/08 05:20:58;;;;;;;3.75;2.77;;;;;;;16.77;78.91;99589.30;2094920;82;21059;-72
2021/08/08 05:24:00;;;;;;;3.00;2.70;;;;;;;16.81;79.04;99602.57;2086595;82;21076;-70
2021/08/08 05:27:02;;;;;;;4.00;2.87;;;;;;;16.80;79.07;99611.63;2082702;83;21087;-75
2021/08/08 05:30:08;;;;;;;3.33;2.58;;;;;;;16.79;79.12;99606.80;2076882;82;21638;-70
2021/08/08 05:33:09;;;;;;;3.05;2.50;;;;;;;16.85;79.26;99606.96;2078547;83;21085;-69
2021/08/08 05:36:10;;;;;;;2.92;2.30;;;;;;;16.95;79.26;99612.13;2081465;83;22514;-70
2021/08/08 05:39:12;;;;;;;4.10;2.17;;;;;;;17.15;79.33;99605.75;2077641;83;21072;-72
2021/08/08 05:42:19;;;;;;;2.72;2.20;;;;;;;17.39;79.12;99604.85;2078237;83;21106;-75
2021/08/08 05:45:22;;;;;;;3.08;2.40;;;;;;;17.61;78.90;99606.56;2063936;83;21080;-71
2021/08/08 05:48:23;;;;;;;3.35;2.30;;;;;;;17.79;78.88;99625.86;2048546;83;21100;-72
2021/08/08 05:51:25;;;;;;;2.10;1.90;;;;;;;17.92;78.35;99629.72;2084883;82;22325;-71
2021/08/08 05:54:27;;;;;;;2.67;2.00;;;;;;;17.97;77.88;99623.69;2083523;83;21154;-72
2021/08/08 05:57:28;;;;;;;2.80;2.10;;;;;;;17.98;77.64;99623.16;2026469;83;21083;-79
2021/08/08 06:00:29;;;;;;;2.90;2.25;;;;;;;17.99;77.36;99618.08;2078931;82;21082;-71
2021/08/08 06:03:32;;;;;;;2.37;1.92;;;;;;;18.02;77.26;99610.91;2075767;82;21532;-75
2021/08/08 06:06:34;;;;;;;3.90;2.20;;;;;;;18.05;77.05;99618.00;2077672;82;21078;-77
2021/08/08 06:09:35;;;;;;;2.67;1.55;;;;;;;18.05;76.92;99622.03;2074529;83;21151;-75
2021/08/08 06:12:37;;;;;;;2.45;1.90;;;;;;;18.09;76.75;99613.80;2078019;83;21192;-78
2021/08/08 06:15:38;;;;;;;3.50;1.72;;;;;;;18.13;76.51;99616.34;2092863;82;21151;-72
2021/08/08 06:18:40;;;;;;;2.35;1.75;;;;;;;18.18;76.27;99616.98;2072511;83;21147;-77
2021/08/08 06:21:43;;;;;;;3.47;1.60;;;;;;;18.22;76.10;99602.06;2078588;83;21133;-72
2021/08/08 06:24:45;;;;;;;2.33;1.62;;;;;;;18.29;75.95;99600.09;2077347;83;21602;-78
2021/08/08 06:27:46;;;;;;;1.95;1.72;;;;;;;18.41;75.98;99607.35;2085631;83;21098;-73
2021/08/08 06:30:47;;;;;;;2.60;2.00;;;;;;;18.52;75.57;99619.98;2083679;82;21096;-73
2021/08/08 06:33:49;;;;;;;2.40;1.95;;;;;;;18.57;75.40;99629.52;2072238;83;21537;-77
2021/08/08 06:36:50;;;;;;;4.70;1.70;;;;;;;18.65;75.32;99636.44;2080156;83;21079;-69
2021/08/08 06:39:52;;;;;;;4.15;1.85;;;;;;;18.68;75.08;99635.44;2076910;83;21099;-72
2021/08/08 06:42:54;;;;;;;2.12;1.55;;;;;;;18.68;74.80;99650.75;2083817;83;21677;-74
2021/08/08 06:45:57;;;;;;;1.90;1.75;;;;;;;18.66;74.63;99659.03;2073115;82;21414;-74
2021/08/08 06:48:58;;;;;;;5.25;1.85;;;;;;;18.59;74.48;99648.92;2089545;83;21089;-73
2021/08/08 06:52:00;;;;;;;3.22;1.60;;;;;;;18.51;74.46;99643.88;2086343;83;21080;-73
2021/08/08 06:55:02;;;;;;;1.90;1.60;;;;;;;18.47;74.41;99636.81;2085694;82;22284;-76
2021/08/08 06:58:04;;;;;;;2.08;1.85;;;;;;;18.44;74.52;99635.09;2070466;83;21103;-82
2021/08/08 07:01:05;;;;;;;1.72;1.62;;;;;;;18.49;74.80;99632.54;2100079;83;21089;-76
2021/08/08 07:04:07;;;;;;;2.60;1.62;;;;;;;18.55;74.74;99644.52;2088893;83;21064;-74
2021/08/08 07:07:08;;;;;;;4.62;1.85;;;;;;;18.62;74.53;99657.05;2082149;81;22305;-74
2021/08/08 07:10:10;;;;;;;2.08;1.72;;;;;;;18.66;74.53;99658.22;2082640;82;21123;-75
2021/08/08 07:13:12;;;;;;;2.10;1.90;;;;;;;18.70;74.35;99666.94;2056547;84;21104;-76
2021/08/08 07:16:14;;;;;;;4.30;1.65;;;;;;;18.72;74.37;99666.16;2056986;83;21072;-73
2021/08/08 07:19:15;;;;;;;2.00;1.80;;;;;;;18.69;74.11;99665.81;2047592;84;22342;-82
2021/08/08 07:22:16;;;;;;;2.20;2.00;;;;;;;18.70;74.11;99647.31;2031050;85;21110;-77
2021/08/08 07:25:19;;;;;;;4.53;1.75;;;;;;;18.76;74.01;99635.14;2045017;84;22382;-80
2021/08/08 07:28:21;;;;;;;2.90;1.65;;;;;;;18.83;74.10;99644.42;2026171;85;21144;-79
2021/08/08 07:31:23;;;;;;;4.33;2.00;;;;;;;18.86;73.82;99655.23;2037814;85;21615;-77
2021/08/08 07:34:24;;;;;;;3.22;1.98;;;;;;;18.89;73.69;99668.21;2012193;85;21137;-75
2021/08/08 07:37:26;;;;;;;1.60;1.50;;;;;;;18.94;73.56;99656.23;2012655;85;21475;-76
2021/08/08 07:40:28;;;;;;;1.65;1.42;;;;;;;19.06;73.58;99654.37;2027586;85;21094;-76
2021/08/08 07:43:30;;;;;;;2.37;1.50;;;;;;;19.20;73.61;99655.80;2012985;85;22299;-81
2021/08/08 07:46:31;;;;;;;4.95;2.22;;;;;;;19.30;73.24;99669.98;2030785;85;21078;-77
2021/08/08 07:49:32;;;;;;;3.00;1.55;;;;;;;19.42;73.14;99673.48;2024947;85;21131;-76
2021/08/08 07:52:36;;;;;;;1.77;1.60;;;;;;;19.56;72.62;99691.53;2017516;85;21098;-81
2021/08/08 07:55:38;;;;;;;1.72;1.60;;;;;;;19.58;72.05;99699.39;2030330;84;21623;-83
2021/08/08 07:58:41;;;;;;;1.90;1.70;;;;;;;19.57;71.74;99699.92;2018975;84;21068;-75
2021/08/08 08:01:45;;;;;;;4.03;1.45;;;;;;;19.52;71.77;99698.45;2026646;85;21220;-78
2021/08/08 08:04:46;;;;;;;3.27;1.87;;;;;;;19.59;71.96;99709.90;2032577;85;21168;-75
2021/08/08 08:07:48;;;;;;;6.85;1.80;;;;;;;19.63;71.76;99721.84;2038955;84;21172;-78
2021/08/08 08:10:50;;;;;;;4.10;1.80;;;;;;;19.69;71.64;99726.84;2052044;84;21139;-77
2021/08/08 08:13:51;;;;;;;1.85;1.25;;;;;;;19.86;71.47;99722.90;2048976;84;21174;-78
2021/08/08 08:16:53;;;;;;;3.52;1.92;;;;;;;20.23;71.75;99725.26;2046194;84;21079;-75
2021/08/08 08:19:54;;;;;;;2.52;1.70;;;;;;;20.90;70.47;99726.78;2027252;85;22991;-79
2021/08/08 08:22:56;;;;;;;1.70;1.47;;;;;;;21.42;69.92;99726.53;2027598;84;21150;-76
2021/08/08 08:25:58;;;;;;;1.70;1.60;;;;;;;22.06;69.63;99723.34;2035754;85;22581;-77
2021/08/08 08:28:59;;;;;;;2.70;1.75;;;;;;;22.53;68.03;99724.17;2022852;84;21143;-81
2021/08/08 08:32:01;;;;;;;5.42;2.08;;;;;;;22.96;67.63;99729.73;2050681;84;21090;-77
2021/08/08 08:35:05;;;;;;;1.95;1.75;;;;;;;23.42;66.13;99728.17;2015772;85;21150;-76
2021/08/08 08:38:07;;;;;;;2.35;1.60;;;;;;;23.99;64.74;99739.34;2031041;84;21477;-77
2021/08/08 08:41:12;;;;;;;1.72;1.30;;;;;;;23.93;63.25;99731.22;2009427;86;21177;-76
2021/08/08 08:44:16;;;;;;;4.90;1.77;;;;;;;24.05;63.14;99742.37;2018837;86;21092;-78
2021/08/08 08:47:19;;;;;;;3.65;1.77;;;;;;;24.66;61.56;99734.97;2070680;83;21373;-80
2021/08/08 08:50:22;;;;;;;1.92;1.70;;;;;;;24.60;60.59;99740.92;2058394;83;21077;-81
2021/08/08 08:53:25;;;;;;;5.47;1.70;;;;;;;24.37;60.47;99738.13;2069425;83;21048;-78
2021/08/08 08:56:29;;;;;;;5.67;2.42;;;;;;;24.29;60.28;99738.65;2076531;83;21173;-76
2021/08/08 08:59:32;;;;;;;2.37;1.70;;;;;;;24.11;59.63;99743.47;2051770;83;21131;-76
2021/08/08 09:02:35;;;;;;;3.67;1.40;;;;;;;24.23;58.87;99745.14;2069880;83;21139;-76
2021/08/08 09:05:37;;;;;;;1.40;1.30;;;;;;;24.20;58.30;99749.73;2064277;83;21069;-77
2021/08/08 09:08:40;;;;;;;1.37;1.15;;;;;;;23.90;58.41;99747.16;2069632;83;21101;-80
2021/08/08 09:11:44;;;;;;;4.67;1.57;;;;;;;23.74;58.30;99746.28;2061745;83;21061;-80
2021/08/08 09:15:01;;;;;;;3.52;1.55;;;;;;;23.62;58.24;99759.16;2077646;83;21105;-75
2021/08/08 09:18:21;;;;;;;1.52;1.35;;;;;;;23.60;58.00;99747.80;2069768;83;21109;-80
2021/08/08 09:21:35;;;;;;;2.02;1.50;;;;;;;23.44;57.36;99752.29;2071030;83;21116;-74
2021/08/08 09:24:37;;;;;;;2.25;1.70;;;;;;;23.42;57.92;99763.36;2073413;83;21736;-74
2021/08/08 09:27:40;;;;;;;1.55;1.40;;;;;;;23.55;57.73;99764.01;2068422;84;21732;-78
2021/08/08 09:30:43;;;;;;;2.00;1.37;;;;;;;23.93;58.02;99752.05;2069354;82;21639;-71
2021/08/08 09:33:46;;;;;;;1.47;1.37;;;;;;;24.34;56.69;99754.39;2066130;84;21154;-77
2021/08/08 09:36:47;;;;;;;1.92;1.50;;;;;;;24.89;55.44;99758.05;2050187;83;21079;-76
2021/08/08 09:39:53;;;;;;;1.80;1.10;;;;;;;25.31;55.50;99767.86;2067619;83;21060;-76
2021/08/08 09:42:55;;;;;;;1.27;1.17;;;;;;;25.46;54.29;99772.75;2040569;84;21084;-76
2021/08/08 09:45:56;;;;;;;3.58;2.20;;;;;;;25.26;54.36;99771.41;2073386;83;21140;-76
2021/08/08 09:49:13;;;;;;;2.72;1.30;;;;;;;24.95;53.58;99759.16;2070266;83;21332;-77
2021/08/08 09:52:18;;;;;;;1.27;1.00;;;;;;;24.59;53.93;99763.17;2075245;83;21081;-73
2021/08/08 09:55:34;;;;;;;1.22;0.95;;;;;;;24.51;54.08;99758.27;2064966;84;21115;-76
2021/08/08 09:58:39;;;;;;;4.50;1.30;;;;;;;24.38;53.83;99766.86;2076236;83;21113;-74
2021/08/08 10:01:40;;;;;;;1.47;1.20;;;;;;;24.03;53.06;99759.43;2071043;83;21079;-72
2021/08/08 10:04:41;;;;;;;1.42;0.98;;;;;;;23.89;54.18;99769.92;2069649;83;21122;-76
2021/08/08 10:07:43;;;;;;;1.95;1.10;;;;;;;24.00;54.59;99781.63;2080366;83;21031;-74
2021/08/08 10:10:48;;;;;;;3.20;1.35;;;;;;;24.10;54.47;99789.80;2077711;83;21074;-74
2021/08/08 10:14:03;;;;;;;1.30;1.20;;;;;;;24.35;53.99;99791.25;2069927;84;21056;-73
2021/08/08 10:17:08;;;;;;;3.95;1.22;;;;;;;24.83;53.97;99793.34;2074425;83;21923;-74
2021/08/08 10:20:10;;;;;;;2.45;1.30;;;;;;;25.36;54.33;99802.61;2079129;82;21140;-76
2021/08/08 10:23:14;;;;;;;1.20;1.10;;;;;;;25.77;52.63;99797.14;2009497;85;21085;-80
2021/08/08 10:26:15;;;;;;;3.52;1.40;;;;;;;26.06;52.47;99785.67;2012437;86;21097;-76
2021/08/08 10:29:20;;;;;;;2.45;1.22;;;;;;;26.33;51.24;99792.91;2024928;85;21075;-77
2021/08/08 10:32:27;;;;;;;2.83;1.35;;;;;;;26.47;51.84;99787.68;2063317;84;21662;-74
2021/08/08 10:35:38;;;;;;;2.58;1.12;;;;;;;26.65;51.07;99785.44;2061566;84;21704;-81
2021/08/08 10:38:39;;;;;;;1.40;1.30;;;;;;;26.74;50.87;99788.63;2073593;84;21078;-78
2021/08/08 10:41:57;;;;;;;2.27;1.07;;;;;;;26.60;50.60;99788.98;2057940;84;21050;-84
2021/08/08 10:44:59;;;;;;;1.70;1.30;;;;;;;26.40;50.36;99784.44;2049789;84;21066;-77
2021/08/08 10:48:04;;;;;;;1.82;1.10;;;;;;;26.52;50.66;99784.94;2056706;84;21191;-87
2021/08/08 10:51:24;;;;;;;1.98;1.20;;;;;;;26.83;50.22;99787.48;2034492;84;21091;-83
2021/08/08 10:54:26;;;;;;;1.62;1.10;;;;;;;26.81;49.06;99799.22;2033024;85;21647;-73
2021/08/08 10:57:27;;;;;;;1.55;1.10;;;;;;;26.79;49.55;99798.13;2071595;83;21106;-81
2021/08/08 11:00:35;;;;;;;1.72;1.17;;;;;;;26.59;48.73;99792.81;2073064;83;21679;-75
2021/08/08 11:03:56;;;;;;;1.00;1.00;;;;;;;26.29;49.13;99794.55;2046363;84;21085;-76
2021/08/08 11:06:58;;;;;;;2.87;0.93;;;;;;;26.40;50.10;99787.16;2050141;84;21092;-79
2021/08/08 11:09:59;;;;;;;2.90;1.30;;;;;;;26.66;48.98;99789.22;2075262;84;21093;-80
2021/08/08 11:13:01;;;;;;;6.22;1.12;;;;;;;26.59;48.31;99794.17;2091944;84;21134;-84
2021/08/08 11:16:08;;;;;;;3.17;1.22;;;;;;;26.31;47.54;99797.81;2063326;84;21135;-76
2021/08/08 11:19:11;;;;;;;1.90;1.00;;;;;;;26.17;48.44;99809.02;2071575;84;21722;-81
2021/08/08 11:22:16;;;;;;;1.62;1.20;;;;;;;26.25;48.71;99804.92;2063553;82;21072;-79
2021/08/08 11:25:20;;;;;;;1.57;1.00;;;;;;;26.07;48.31;99809.04;2053046;84;21087;-78
2021/08/08 11:28:21;;;;;;;1.25;1.10;;;;;;;25.87;48.33;99811.27;2057059;84;21050;-76
2021/08/08 11:31:24;;;;;;;1.05;1.00;;;;;;;25.71;49.05;99815.91;2042839;84;22417;-76
2021/08/08 11:34:26;;;;;;;1.30;1.10;;;;;;;25.58;49.06;99815.91;2045680;84;21151;-75
2021/08/08 11:37:38;;;;;;;2.00;0.95;;;;;;;25.45;48.65;99817.30;2065900;84;21652;-85
2021/08/08 11:40:43;;;;;;;1.00;0.90;;;;;;;25.23;48.56;99811.33;2032536;84;21131;-84
2021/08/08 11:43:44;;;;;;;1.05;0.98;;;;;;;25.15;49.19;99812.67;2043614;84;21162;-78
2021/08/08 11:46:55;;;;;;;3.98;1.30;;;;;;;25.17;49.35;99815.09;2042588;84;21113;-75
2021/08/08 11:49:57;;;;;;;2.80;0.90;;;;;;;25.35;49.63;99817.29;2035874;84;21154;-83
2021/08/08 11:53:02;;;;;;;1.20;1.00;;;;;;;25.72;48.90;99812.09;2041819;84;22252;-76
2021/08/08 11:56:18;;;;;;;3.85;1.40;;;;;;;25.64;48.82;99813.45;2040020;84;21147;-76
2021/08/08 11:59:32;;;;;;;2.55;1.10;;;;;;;25.70;48.90;99815.07;2051075;84;21068;-76
2021/08/08 12:02:34;;;;;;;3.25;1.00;;;;;;;26.07;49.05;99820.75;2032934;84;21159;-78
2021/08/08 12:05:38;;;;;;;1.27;1.10;;;;;;;26.27;48.28;99820.39;2035021;84;21121;-77
2021/08/08 12:08:40;;;;;;;1.07;1.00;;;;;;;26.51;48.01;99821.96;2037881;84;21084;-77
2021/08/08 12:11:53;;;;;;;1.37;0.90;;;;;;;26.72;48.17;99813.13;2044517;85;21427;-75
2021/08/08 12:14:58;;;;;;;1.98;1.00;;;;;;;27.08;47.10;99810.98;2027716;86;21101;-75
2021/08/08 12:18:00;;;;;;;14.45;1.60;;;;;;;27.38;46.98;99811.34;2021747;86;21133;-80
2021/08/08 12:21:01;;;;;;;0.80;0.80;;;;;;;27.30;46.48;99808.41;2093381;82;21067;-80
2021/08/08 12:24:07;;;;;;;1.55;1.02;;;;;;;26.85;46.17;99819.88;2061486;83;21655;-81
2021/08/08 12:27:13;;;;;;;0.98;0.80;;;;;;;26.58;46.84;99819.73;2089076;83;21601;-80
2021/08/08 12:30:16;;;;;;;1.87;1.00;;;;;;;26.44;46.44;99820.88;2087802;82;21181;-79
2021/08/08 12:33:18;;;;;;;1.87;0.90;;;;;;;26.35;46.55;99819.27;2094355;83;21156;-79
2021/08/08 12:36:21;;;;;;;1.65;0.85;;;;;;;26.30;47.05;99816.59;2089136;83;21135;-79
2021/08/08 12:39:26;;;;;;;1.22;0.70;;;;;;;26.23;45.75;99817.42;2088282;82;21124;-78
2021/08/08 12:42:27;;;;;;;1.30;0.80;;;;;;;26.05;45.01;99832.98;2083938;82;22187;-77
2021/08/08 12:45:34;;;;;;;1.02;0.88;;;;;;;25.93;44.57;99832.75;2075968;83;21072;-77
2021/08/08 12:48:35;;;;;;;0.90;0.80;;;;;;;25.82;44.78;99832.98;2083307;82;21641;-78
2021/08/08 12:51:38;;;;;;;1.10;0.70;;;;;;;25.78;45.22;99828.65;2084743;82;21088;-77
2021/08/08 12:54:40;;;;;;;1.00;0.90;;;;;;;25.80;45.59;99825.67;2080572;82;22109;-82
2021/08/08 12:57:42;;;;;;;2.83;0.85;;;;;;;26.08;45.18;99835.16;2096694;82;22717;-81
2021/08/08 13:00:43;;;;;;;0.85;0.82;;;;;;;26.18;44.28;99832.38;2080582;83;21095;-75
2021/08/08 13:03:45;;;;;;;1.17;0.82;;;;;;;26.29;44.92;99833.98;2079582;82;21011;-75
2021/08/08 13:06:47;;;;;;;;;;;;;;;26.51;43.94;99836.92;2070559;82;21675;-78
2021/08/08 13:09:49;;;;;;;1.62;1.22;;;;;;;26.68;43.22;99837.92;2079227;83;20464;-76
2021/08/08 13:12:51;;;;;;;0.90;0.90;;;;;;;26.77;43.94;99841.13;2097625;82;21106;-81
2021/08/08 13:15:52;;;;;;;2.35;0.80;;;;;;;27.02;43.41;99842.08;2089484;82;21081;-77
2021/08/08 13:18:54;;;;;;;1.17;0.80;;;;;;;27.14;43.05;99845.25;2079278;83;21652;-87
2021/08/08 13:21:57;;;;;;;0.62;0.60;;;;;;;27.21;42.82;99837.62;2086102;82;21044;-77
2021/08/08 13:24:58;;;;;;;1.52;0.82;;;;;;;27.21;42.88;99840.34;2091921;82;21166;-83
2021/08/08 13:28:00;;;;;;;0.80;0.80;;;;;;;27.25;42.06;99841.38;2088866;82;21603;-80
2021/08/08 13:31:02;;;;;;;2.95;0.93;;;;;;;27.11;42.41;99847.18;2098609;82;21142;-84
2021/08/08 13:34:03;;;;;;;1.20;0.82;;;;;;;26.99;42.56;99846.73;2089917;82;21069;-77
2021/08/08 13:37:09;;;;;;;2.50;0.80;;;;;;;26.83;42.67;99846.83;2096235;83;21070;-78
2021/08/08 13:40:12;;;;;;;0.80;0.80;;;;;;;26.65;42.01;99846.66;2097850;81;22253;-77
2021/08/08 13:43:14;;;;;;;1.02;0.90;;;;;;;26.63;42.67;99847.47;2092024;82;21149;-78
2021/08/08 13:46:15;;;;;;;1.45;0.80;;;;;;;26.42;42.41;99854.89;2061499;83;21097;-80
2021/08/08 13:49:17;;;;;;;2.77;1.00;;;;;;;26.14;42.36;99853.08;2065755;84;21055;-77
2021/08/08 13:52:19;;;;;;;3.55;1.15;;;;;;;25.91;42.87;99866.72;2067539;83;21110;-78
2021/08/08 13:55:20;;;;;;;2.10;0.80;;;;;;;25.75;43.46;99873.23;2071741;83;21122;-81
2021/08/08 13:58:21;;;;;;;0.90;0.90;;;;;;;25.61;43.56;99872.41;2067849;83;21067;-77
2021/08/08 14:01:23;;;;;;;2.12;1.20;;;;;;;25.60;43.85;99872.70;2063258;83;21030;-74
2021/08/08 14:04:25;;;;;;;1.92;1.10;;;;;;;25.58;43.57;99873.50;2066778;83;21107;-76
2021/08/08 14:07:26;;;;;;;1.87;0.80;;;;;;;25.62;44.30;99874.58;2075498;82;21102;-77
2021/08/08 14:10:27;;;;;;;1.22;0.90;;;;;;;25.61;43.88;99876.48;2064600;84;21061;-78
2021/08/08 14:13:29;;;;;;;2.15;0.88;;;;;;;25.67;44.46;99877.30;2067482;83;21030;-76
2021/08/08 14:16:30;;;;;;;1.35;0.80;;;;;;;25.72;44.57;99867.80;2058561;84;21104;-84
2021/08/08 14:19:32;;;;;;;1.35;0.90;;;;;;;25.80;45.37;99869.16;2062410;84;21072;-78
2021/08/08 14:22:34;;;;;;;1.12;0.85;;;;;;;25.74;44.66;99870.25;2066041;83;21646;-77